Praha-Libus, Czech Republic
Current Conditions -  °F | °C
As of 3:00 PM on Friday 24 Oct 2014 (Local Time) from LKKB Reporting Station
Broken Clouds Broken Clouds  
Wind Chill: 46°   Ceiling: 2000
Heat Index: 46°   Visibility: 6mi
Dew Point: 41°   Wind: 2mph
Humidity: 81%   Direction: NA
Pressure: 30.21"   Gusts: NA
Location:  50.01°N, 14.46°E
Report Text: LKKB 241300Z VRB02KT 9999 SCT016 BKN020 08/05 Q1023 NOSIG
Loading
Personal Weather Stations






























Interactive Weather Map
Tropical Storm Tracking
New forecast layout! Learn more

10-Day Weather Forecast

Advertisements
Track Severe Weather on mobile